createdAt,value
2022-11-28T00:02:45.394Z,12.00
2022-11-28T00:07:46.926Z,13.23
2022-11-28T00:12:48.298Z,13.68
2022-11-28T00:17:49.656Z,12.95
2022-11-28T00:22:52.100Z,11.65
2022-11-28T00:27:53.521Z,12.55
2022-11-28T00:32:54.889Z,12.93
2022-11-28T00:37:56.236Z,11.40
2022-11-28T00:42:57.588Z,10.20
2022-11-28T00:47:58.992Z,11.65
2022-11-28T00:53:00.331Z,13.55
2022-11-28T00:58:01.707Z,13.68
2022-11-28T01:03:03.585Z,14.20
2022-11-28T01:08:04.929Z,12.85
2022-11-28T01:13:06.423Z,18.77
2022-11-28T01:18:08.135Z,15.75
2022-11-28T01:23:09.499Z,13.48
2022-11-28T01:28:10.831Z,12.43
2022-11-28T01:33:12.234Z,13.02
2022-11-28T01:38:13.536Z,17.85
2022-11-28T01:43:15.213Z,14.35
2022-11-28T01:48:22.793Z,14.25
2022-11-28T01:58:29.172Z,14.70
2022-11-28T02:03:38.286Z,13.57
2022-11-28T02:08:39.972Z,15.95
2022-11-28T02:13:53.166Z,13.23
2022-11-28T02:18:59.412Z,13.95
2022-11-28T02:24:31.812Z,14.75
2022-11-28T02:30:00.781Z,14.45
2022-11-28T02:35:19.577Z,15.55
2022-11-28T02:40:47.066Z,19.88
2022-11-28T02:46:13.677Z,15.33
2022-11-28T02:51:28.769Z,11.93
2022-11-28T02:56:30.311Z,14.05
2022-11-28T03:01:38.189Z,14.35
2022-11-28T03:06:52.175Z,11.35
2022-11-28T03:12:29.300Z,12.57
2022-11-28T03:17:54.866Z,13.48
2022-11-28T03:23:14.985Z,14.68
2022-11-28T03:28:23.023Z,15.13
2022-11-28T03:33:27.794Z,14.30
2022-11-28T03:38:35.576Z,14.27
2022-11-28T03:43:43.951Z,12.43
2022-11-28T03:48:49.555Z,16.10
2022-11-28T03:53:56.214Z,16.27
2022-11-28T03:59:16.488Z,14.55
2022-11-28T04:04:38.806Z,16.10
2022-11-28T04:09:49.422Z,18.52
2022-11-28T04:14:59.453Z,13.93
2022-11-28T04:20:09.148Z,14.90
2022-11-28T04:25:14.909Z,15.82
2022-11-28T04:30:16.650Z,16.00
2022-11-28T04:35:27.058Z,11.80
2022-11-28T04:40:32.144Z,14.60
2022-11-28T04:45:43.809Z,14.18
2022-11-28T04:51:09.365Z,14.57
2022-11-28T04:56:20.883Z,16.15
2022-11-28T05:01:27.655Z,16.83
2022-11-28T05:06:34.979Z,15.97
2022-11-28T05:11:36.337Z,16.17
2022-11-28T05:16:37.726Z,20.15
2022-11-28T05:21:39.137Z,16.75
2022-11-28T05:26:40.555Z,17.60
2022-11-28T05:31:41.931Z,17.27
2022-11-28T05:36:43.342Z,18.58
2022-11-28T05:41:44.716Z,16.42
2022-11-28T05:46:46.208Z,16.77
2022-11-28T05:51:48.705Z,17.67
2022-11-28T05:56:50.119Z,20.55
2022-11-28T06:01:51.708Z,15.25
2022-11-28T06:06:53.067Z,18.70
2022-11-28T06:11:54.428Z,18.20
2022-11-28T06:16:55.851Z,19.35
2022-11-28T06:21:57.222Z,18.90
2022-11-28T06:26:58.653Z,21.33
2022-11-28T06:32:00.086Z,20.58
2022-11-28T06:37:01.528Z,20.95
2022-11-28T06:42:02.962Z,18.42
2022-11-28T06:47:04.469Z,23.60
2022-11-28T06:52:05.857Z,18.67
2022-11-28T06:57:07.221Z,20.02
2022-11-28T07:02:10.879Z,18.85
2022-11-28T07:07:16.361Z,19.02
2022-11-28T07:12:18.185Z,17.98
2022-11-28T07:17:19.542Z,20.63
2022-11-28T07:22:22.211Z,20.42
2022-11-28T07:27:23.591Z,26.77
2022-11-28T07:32:25.240Z,20.52
2022-11-28T07:37:26.588Z,20.67
2022-11-28T07:42:27.979Z,21.00
2022-11-28T07:47:29.304Z,22.17
2022-11-28T07:52:30.640Z,23.40
2022-11-28T07:57:31.992Z,19.00
2022-11-28T08:02:33.486Z,18.92
2022-11-28T08:07:34.902Z,21.35
2022-11-28T08:12:36.326Z,23.80
2022-11-28T08:17:37.696Z,31.25
2022-11-28T08:22:39.058Z,22.40
2022-11-28T08:27:40.403Z,18.52
2022-11-28T08:32:41.763Z,24.17
2022-11-28T08:37:43.191Z,18.60
2022-11-28T08:42:44.552Z,24.58
2022-11-28T08:47:45.980Z,21.83
2022-11-28T08:52:47.393Z,18.10
2022-11-28T08:57:48.796Z,18.88
2022-11-28T09:02:50.161Z,21.38
2022-11-28T09:07:54.908Z,20.33
2022-11-28T09:12:56.417Z,19.88
2022-11-28T09:17:58.178Z,21.48
2022-11-28T09:22:59.729Z,18.90
2022-11-28T09:28:01.325Z,20.20
2022-11-28T09:33:02.777Z,19.08
2022-11-28T09:38:04.213Z,20.42
2022-11-28T09:43:36.435Z,18.98
2022-11-28T09:48:46.617Z,18.50
2022-11-28T09:54:16.690Z,19.50
2022-11-28T09:59:24.444Z,18.67
2022-11-28T10:05:05.555Z,19.92
2022-11-28T10:10:34.426Z,17.55
2022-11-28T10:15:54.165Z,20.42
2022-11-28T10:21:02.587Z,19.48
2022-11-28T10:26:23.254Z,18.60
2022-11-28T10:31:33.402Z,19.23
2022-11-28T10:36:51.607Z,19.42
2022-11-28T10:42:11.754Z,25.38
2022-11-28T10:47:48.729Z,20.30
2022-11-28T10:53:27.136Z,18.73
2022-11-28T11:03:38.591Z,21.65
2022-11-28T11:08:41.390Z,17.85
2022-11-28T11:14:04.143Z,15.77
2022-11-28T11:19:05.561Z,17.52
2022-11-28T11:24:17.167Z,18.48
2022-11-28T11:29:35.621Z,16.40
2022-11-28T11:34:44.207Z,14.25
2022-11-28T11:39:52.850Z,12.00
2022-11-28T11:44:54.467Z,12.23
2022-11-28T11:50:05.016Z,11.32
2022-11-28T11:55:15.004Z,13.00
2022-11-28T12:00:21.050Z,13.45
2022-11-28T12:05:52.696Z,14.00
2022-11-28T14:08:06.066Z,19.92
2022-11-28T14:13:16.466Z,18.73
2022-11-28T14:19:00.317Z,18.35
2022-11-28T14:29:39.406Z,19.95
2022-11-28T14:34:47.294Z,23.67
2022-11-28T14:39:50.927Z,21.63
2022-11-28T14:55:26.157Z,24.53
2022-11-28T15:00:35.054Z,22.98
2022-11-28T15:05:52.476Z,18.70
2022-11-28T15:16:57.659Z,22.90
2022-11-28T15:21:59.471Z,20.57
2022-11-28T15:27:07.073Z,23.85
2022-11-28T15:32:14.799Z,24.70
2022-11-28T15:37:19.804Z,23.77
2022-11-28T15:42:29.712Z,21.40
2022-11-28T15:47:32.172Z,23.25
2022-11-28T15:52:33.855Z,22.50
2022-11-28T15:57:36.915Z,28.83
2022-11-28T16:02:40.879Z,27.50
2022-11-28T16:13:04.761Z,24.90
2022-11-28T16:18:07.059Z,22.08
2022-11-28T16:23:30.506Z,23.48
2022-11-28T16:28:43.132Z,21.55
2022-11-28T16:33:48.175Z,22.45
2022-11-28T16:39:04.769Z,21.63
2022-11-28T16:44:14.802Z,26.23
2022-11-28T16:49:42.411Z,27.38
2022-11-28T16:54:44.121Z,28.38
2022-11-28T16:59:47.163Z,25.10
2022-11-28T17:04:50.330Z,33.58
2022-11-28T17:09:51.718Z,25.98
2022-11-28T17:14:54.286Z,30.73
2022-11-28T17:19:55.656Z,24.55
2022-11-28T17:25:01.620Z,27.48
2022-11-28T17:30:03.113Z,23.55
2022-11-28T17:35:13.708Z,25.40
2022-11-28T17:40:33.427Z,26.67
2022-11-28T17:45:35.303Z,27.10
2022-11-28T17:50:37.280Z,29.38
2022-11-28T17:55:40.971Z,27.38
2022-11-28T18:00:42.662Z,25.85
2022-11-28T18:05:46.727Z,27.15
2022-11-28T18:10:48.519Z,28.52
2022-11-28T18:15:53.190Z,23.33
2022-11-28T18:20:54.552Z,30.88
2022-11-28T18:25:55.883Z,31.00
2022-11-28T18:30:57.230Z,36.88
2022-11-28T18:36:08.613Z,34.00
2022-11-28T18:41:10.124Z,33.88
2022-11-28T18:46:17.149Z,32.65
2022-11-28T18:51:21.811Z,32.50
2022-11-28T18:56:24.818Z,25.88
2022-11-28T19:01:32.363Z,30.40
2022-11-28T19:11:36.973Z,32.13
2022-11-28T19:16:38.397Z,31.35
2022-11-28T19:21:39.803Z,27.55
2022-11-28T19:26:41.372Z,31.80
2022-11-28T19:31:42.880Z,32.75
2022-11-28T19:36:47.479Z,29.15
2022-11-28T19:41:50.630Z,33.90
2022-11-28T19:46:53.368Z,31.42
2022-11-28T19:51:54.724Z,30.05
2022-11-28T19:56:56.146Z,51.88
2022-11-28T20:01:58.699Z,41.78
2022-11-28T20:07:00.076Z,34.60
2022-11-28T20:12:01.421Z,32.28
2022-11-28T20:17:02.774Z,32.58
2022-11-28T20:22:04.123Z,32.15
2022-11-28T20:27:05.515Z,34.90
2022-11-28T20:32:06.962Z,33.58
2022-11-28T20:37:08.492Z,29.20
2022-11-28T20:42:09.928Z,33.78
2022-11-28T20:47:11.696Z,37.17
2022-11-28T20:52:13.092Z,37.83
2022-11-28T20:57:21.408Z,32.03
2022-11-28T21:02:23.664Z,31.98
2022-11-28T21:07:26.894Z,37.88
2022-11-28T21:12:28.261Z,33.08
2022-11-28T21:17:29.636Z,31.95
2022-11-28T21:22:31.682Z,37.70
2022-11-28T21:27:35.217Z,32.17
2022-11-28T21:32:36.570Z,30.45
2022-11-28T21:37:37.918Z,33.63
2022-11-28T21:42:39.294Z,27.88
2022-11-28T21:47:40.685Z,31.33
2022-11-28T21:52:42.014Z,32.63
2022-11-28T21:57:44.525Z,32.28
2022-11-28T22:02:47.270Z,31.95
2022-11-28T22:07:48.654Z,43.45
2022-11-28T22:12:50.045Z,38.25
2022-11-28T22:17:51.395Z,33.85
2022-11-28T22:22:52.801Z,37.00
2022-11-28T22:27:54.268Z,34.85
2022-11-28T22:32:55.758Z,36.50
2022-11-28T22:37:57.092Z,34.92
2022-11-28T22:42:58.452Z,32.85
2022-11-28T22:47:59.977Z,30.70
2022-11-28T22:53:01.410Z,35.72
2022-11-28T22:58:02.772Z,34.67
2022-11-28T23:03:04.193Z,37.38
2022-11-28T23:08:05.811Z,32.85
2022-11-28T23:13:07.164Z,33.13
2022-11-28T23:18:08.501Z,30.63
2022-11-28T23:23:09.826Z,35.75
2022-11-28T23:28:11.164Z,36.90
2022-11-28T23:33:12.510Z,32.25
2022-11-28T23:38:15.523Z,37.30
2022-11-28T23:43:16.868Z,36.88
2022-11-28T23:48:18.429Z,30.13
2022-11-28T23:53:19.789Z,32.58
2022-11-28T23:58:21.126Z,31.98
